Time;durP1;ratioP1;P1;durP2;ratioP2;P2;SDS_P1;SDS_P2;PMS_P1;PMS_P2;Temp;Humidity;BMP_temperature;BMP_pressure;BME280_temperature;BME280_humidity;BME280_pressure;Samples;Min_cycle;Max_cycle;Signal;HPM_P1;HPM_P2
2024/01/12 00:01:35;;;;;;;11.30;5.18;;;;;;;;;;5026775;28;20045;-53
2024/01/12 00:04:01;;;;;;;13.30;5.40;;;3.80;99.90;;;;;;5027925;28;20041;-49
2024/01/12 00:06:27;;;;;;;11.48;5.32;;;;;;;;;;5029871;28;20041;-51
2024/01/12 00:08:53;;;;;;;9.13;5.60;;;;;;;;;;5031705;28;20126;-50
2024/01/12 00:11:19;;;;;;;15.98;5.40;;;;;;;;;;5028769;28;20041;-51
2024/01/12 00:13:46;;;;;;;11.35;5.00;;;;;;;;;;5022954;28;20053;-49
2024/01/12 00:16:12;;;;;;;10.00;4.88;;;;;;;;;;5026554;28;20050;-52
2024/01/12 00:18:38;;;;;;;11.45;5.22;;;;;;;;;;5015451;28;20045;-50
2024/01/12 00:21:04;;;;;;;10.93;4.93;;;3.70;99.90;;;;;;5027713;28;20042;-50
2024/01/12 00:23:30;;;;;;;11.13;5.05;;;;;;;;;;5027186;28;20050;-54
2024/01/12 00:25:59;;;;;;;14.80;5.10;;;;;;;;;;5029342;28;20045;-51
2024/01/12 00:28:28;;;;;;;11.23;5.15;;;;;;;;;;5023374;28;20498;-54
2024/01/12 00:30:54;;;;;;;11.90;5.80;;;3.80;99.90;;;;;;5000300;28;20049;-50
2024/01/12 00:33:21;;;;;;;14.18;5.40;;;;;;;;;;5066782;23;20041;-57
2024/01/12 00:35:47;;;;;;;14.07;5.00;;;;;;;;;;5007451;28;20057;-55
2024/01/12 00:38:13;;;;;;;11.48;4.95;;;3.90;99.90;;;;;;4997299;28;20407;-57
2024/01/12 00:40:39;;;;;;;13.18;5.13;;;4.00;99.90;;;;;;4989070;28;20041;-57
2024/01/12 00:43:04;;;;;;;11.13;4.63;;;4.00;99.90;;;;;;4994669;28;20469;-54
2024/01/12 00:45:30;;;;;;;15.18;4.93;;;;;;;;;;4994016;28;20036;-55
2024/01/12 00:47:56;;;;;;;10.80;4.80;;;;;;;;;;4985625;28;20497;-55
2024/01/12 00:50:22;;;;;;;9.88;4.60;;;4.00;99.90;;;;;;4990968;28;20129;-57
2024/01/12 00:52:48;;;;;;;12.02;5.45;;;;;;;;;;4992177;28;20049;-55
2024/01/12 00:55:15;;;;;;;16.73;4.95;;;;;;;;;;4995946;28;20043;-57
2024/01/12 00:57:41;;;;;;;10.52;4.68;;;;;;;;;;4990934;28;20050;-55
2024/01/12 01:00:07;;;;;;;14.35;4.97;;;3.80;99.90;;;;;;4988344;28;20038;-54
2024/01/12 01:02:33;;;;;;;13.35;4.72;;;;;;;;;;4991317;28;20030;-57
2024/01/12 01:04:59;;;;;;;12.65;4.65;;;;;;;;;;4990520;28;20595;-58
2024/01/12 01:07:25;;;;;;;9.65;4.78;;;4.00;99.90;;;;;;4989226;28;20038;-54
2024/01/12 01:09:51;;;;;;;11.85;4.93;;;;;;;;;;4995930;28;20038;-57
2024/01/12 01:12:17;;;;;;;12.77;4.90;;;;;;;;;;4991848;28;20126;-55
2024/01/12 01:14:43;;;;;;;12.32;6.40;;;;;;;;;;4988824;28;20045;-56
2024/01/12 01:17:08;;;;;;;10.80;4.32;;;4.10;99.90;;;;;;4992412;28;20031;-55
2024/01/12 01:19:35;;;;;;;9.45;4.13;;;;;;;;;;4986975;28;20034;-56
2024/01/12 01:22:01;;;;;;;10.43;4.60;;;;;;;;;;4986369;28;20042;-54
2024/01/12 01:24:29;;;;;;;9.13;5.43;;;;;;;;;;4988512;28;20438;-57
2024/01/12 01:26:55;;;;;;;9.88;4.78;;;4.00;99.90;;;;;;5004674;28;20042;-55
2024/01/12 01:29:21;;;;;;;11.00;4.20;;;;;;;;;;4987924;28;20484;-57
2024/01/12 01:31:48;;;;;;;11.52;4.63;;;;;;;;;;4993840;28;20083;-57
2024/01/12 01:34:14;;;;;;;9.13;4.68;;;;;;;;;;4988345;28;20046;-58
2024/01/12 01:36:40;;;;;;;10.35;4.20;;;;;;;;;;4987346;28;20031;-57
2024/01/12 01:39:06;;;;;;;9.88;5.18;;;4.00;99.90;;;;;;4989713;28;20070;-57
2024/01/12 01:41:33;;;;;;;9.73;4.05;;;4.10;99.90;;;;;;4990285;28;20514;-57
2024/01/12 01:43:58;;;;;;;11.85;4.50;;;4.10;99.90;;;;;;4990070;28;20078;-55
2024/01/12 01:46:25;;;;;;;8.27;4.00;;;;;;;;;;4987890;28;20038;-57
2024/01/12 01:48:51;;;;;;;8.43;3.97;;;4.10;99.90;;;;;;4986851;28;20042;-55
2024/01/12 01:51:17;;;;;;;8.38;4.22;;;;;;;;;;4989026;28;20035;-57
2024/01/12 01:53:43;;;;;;;10.38;4.40;;;3.90;99.90;;;;;;4972766;28;20054;-55
2024/01/12 01:56:10;;;;;;;9.13;4.25;;;;;;;;;;4993513;28;20037;-55
2024/01/12 01:58:36;;;;;;;8.30;4.10;;;3.90;99.90;;;;;;4989689;28;20072;-57
2024/01/12 02:01:02;;;;;;;9.73;4.13;;;;;;;;;;4983266;28;20078;-57
2024/01/12 02:03:28;;;;;;;10.27;4.95;;;;;;;;;;4979364;28;20096;-58
2024/01/12 02:05:54;;;;;;;9.98;4.22;;;;;;;;;;4976770;28;20108;-57
2024/01/12 02:08:21;;;;;;;12.93;5.10;;;;;;;;;;4977594;28;20035;-59
2024/01/12 02:10:47;;;;;;;10.20;4.50;;;;;;;;;;4979706;28;20394;-58
2024/01/12 02:13:13;;;;;;;8.18;3.90;;;;;;;;;;4976173;28;20042;-57
2024/01/12 02:15:39;;;;;;;8.55;4.35;;;;;;;;;;4966368;28;20048;-58
2024/01/12 02:18:05;;;;;;;15.82;4.40;;;;;;;;;;4980371;28;20042;-58
2024/01/12 02:20:31;;;;;;;10.13;4.40;;;;;;;;;;4979452;28;20042;-58
2024/01/12 02:22:57;;;;;;;10.80;3.67;;;;;;;;;;4977910;28;20035;-57
2024/01/12 02:25:24;;;;;;;11.20;4.25;;;;;;;;;;4979264;28;20049;-57
2024/01/12 02:27:49;;;;;;;10.40;4.60;;;;;;;;;;4973349;28;20536;-57
2024/01/12 02:30:16;;;;;;;13.40;4.85;;;;;;;;;;4977590;28;20078;-57
2024/01/12 02:32:41;;;;;;;13.90;5.15;;;;;;;;;;4979605;28;20076;-57
2024/01/12 02:35:08;;;;;;;10.73;4.50;;;;;;;;;;4987310;28;20066;-55
2024/01/12 02:37:34;;;;;;;14.52;5.32;;;;;;;;;;4990026;28;20434;-57
2024/01/12 02:40:00;;;;;;;11.77;5.43;;;;;;;;;;4986808;28;20074;-58
2024/01/12 02:42:26;;;;;;;10.38;4.50;;;;;;;;;;4985045;28;20038;-56
2024/01/12 02:44:52;;;;;;;9.88;3.92;;;;;;;;;;4986765;28;20053;-54
2024/01/12 02:47:17;;;;;;;13.85;4.57;;;;;;;;;;4986831;28;20045;-57
2024/01/12 02:49:44;;;;;;;15.68;4.13;;;;;;;;;;4969354;28;20053;-57
2024/01/12 02:52:10;;;;;;;8.75;4.63;;;;;;;;;;4984744;28;20045;-55
2024/01/12 02:54:36;;;;;;;12.27;4.55;;;;;;;;;;4987830;28;20038;-59
2024/01/12 02:57:02;;;;;;;12.90;4.90;;;;;;;;;;4986515;28;20045;-55
2024/01/12 02:59:28;;;;;;;8.48;3.67;;;;;;;;;;4987457;28;20045;-55
2024/01/12 03:01:54;;;;;;;13.32;4.43;;;;;;;;;;4987371;28;20038;-56
2024/01/12 03:04:20;;;;;;;10.20;3.92;;;;;;;;;;4986665;28;20062;-57
2024/01/12 03:06:46;;;;;;;13.45;4.10;;;;;;;;;;4988461;28;20073;-58
2024/01/12 03:09:12;;;;;;;8.00;3.85;;;;;;;;;;5000158;28;20046;-57
2024/01/12 03:11:38;;;;;;;13.00;4.65;;;;;;;;;;4989068;28;20030;-55
2024/01/12 03:14:04;;;;;;;14.30;4.68;;;;;;;;;;4984025;28;20034;-58
2024/01/12 03:16:30;;;;;;;11.73;4.43;;;;;;;;;;4987813;28;20489;-57
2024/01/12 03:18:56;;;;;;;15.05;4.40;;;4.10;99.90;;;;;;4985882;28;20037;-56
2024/01/12 03:21:22;;;;;;;11.15;4.88;;;;;;;;;;4984331;28;20121;-57
2024/01/12 03:23:47;;;;;;;10.18;4.43;;;4.10;99.90;;;;;;4986026;28;20050;-57
2024/01/12 03:26:14;;;;;;;19.70;6.65;;;;;;;;;;4989839;28;20034;-57
2024/01/12 03:28:40;;;;;;;10.82;4.65;;;;;;;;;;4987306;28;20057;-56
2024/01/12 03:31:09;;;;;;;11.43;4.22;;;;;;;;;;4988899;28;20081;-58
2024/01/12 03:33:35;;;;;;;13.23;4.38;;;;;;;;;;4990598;28;20045;-57
2024/01/12 03:36:01;;;;;;;9.45;3.78;;;;;;;;;;4989230;28;20038;-55
2024/01/12 03:38:27;;;;;;;13.60;4.25;;;;;;;;;;4989070;28;20409;-58
2024/01/12 03:40:52;;;;;;;10.57;3.42;;;;;;;;;;4991256;28;20049;-56
2024/01/12 03:43:18;;;;;;;10.27;3.97;;;;;;;;;;4991959;28;20045;-57
2024/01/12 03:45:44;;;;;;;12.50;4.63;;;;;;;;;;4991787;28;20041;-57
2024/01/12 03:48:10;;;;;;;16.38;4.72;;;;;;;;;;4991985;28;20038;-56
2024/01/12 03:50:36;;;;;;;8.25;3.47;;;;;;;;;;4991146;28;20111;-57
2024/01/12 03:53:02;;;;;;;10.70;3.95;;;;;;;;;;4986865;28;20469;-56
2024/01/12 03:55:28;;;;;;;17.35;5.18;;;4.30;99.90;;;;;;4990692;28;20127;-54
2024/01/12 03:57:54;;;;;;;14.85;4.63;;;;;;;;;;4992910;28;20123;-55
2024/01/12 04:00:20;;;;;;;11.57;4.88;;;;;;;;;;4990655;28;20089;-54
2024/01/12 04:02:46;;;;;;;11.98;4.07;;;;;;;;;;4992896;28;20044;-58
2024/01/12 04:05:12;;;;;;;17.05;4.68;;;;;;;;;;4992189;28;20046;-57
2024/01/12 04:07:38;;;;;;;9.27;3.90;;;;;;;;;;4974185;28;20046;-56
2024/01/12 04:10:05;;;;;;;15.75;3.60;;;;;;;;;;4986826;28;20447;-56
2024/01/12 04:12:31;;;;;;;8.95;3.22;;;;;;;;;;4990815;28;20048;-56
2024/01/12 04:14:57;;;;;;;9.77;3.33;;;;;;;;;;4992070;28;20046;-54
2024/01/12 04:17:23;;;;;;;13.27;3.83;;;;;;;;;;4973396;28;20046;-55
2024/01/12 04:19:48;;;;;;;11.63;4.70;;;4.20;99.90;;;;;;4990714;28;20038;-57
2024/01/12 04:22:14;;;;;;;15.43;4.10;;;;;;;;;;4988594;28;20042;-54
2024/01/12 04:24:41;;;;;;;9.13;3.63;;;;;;;;;;4990399;28;20105;-55
2024/01/12 04:27:07;;;;;;;16.45;5.07;;;4.40;99.90;;;;;;4987499;28;20042;-56
2024/01/12 04:29:33;;;;;;;10.55;3.80;;;4.30;99.90;;;;;;4990077;28;20494;-54
2024/01/12 04:31:59;;;;;;;19.08;4.20;;;;;;;;;;4992773;28;20050;-58
2024/01/12 04:34:25;;;;;;;18.52;4.43;;;4.30;99.90;;;;;;4992178;28;20038;-58
2024/01/12 04:36:51;;;;;;;12.32;3.92;;;;;;;;;;4992742;28;20516;-58
2024/01/12 04:39:18;;;;;;;13.55;3.47;;;;;;;;;;4986590;28;20126;-57
2024/01/12 04:41:44;;;;;;;12.75;3.70;;;;;;;;;;4989888;28;20047;-58
2024/01/12 04:44:10;;;;;;;14.07;4.10;;;;;;;;;;4992631;28;20042;-58
2024/01/12 04:46:36;;;;;;;18.10;4.28;;;;;;;;;;4991070;28;20042;-58
2024/01/12 04:49:02;;;;;;;14.93;3.83;;;;;;;;;;4991182;28;20046;-58
2024/01/12 04:51:28;;;;;;;12.55;3.58;;;;;;;;;;4990012;28;20053;-57
2024/01/12 04:53:54;;;;;;;12.55;3.97;;;;;;;;;;4991497;28;20042;-58
2024/01/12 04:56:19;;;;;;;12.63;3.70;;;4.40;99.90;;;;;;4991251;28;20046;-56
2024/01/12 04:58:45;;;;;;;12.82;3.42;;;;;;;;;;4990853;28;20513;-57
2024/01/12 05:01:11;;;;;;;13.52;4.13;;;;;;;;;;4985003;28;20097;-57
2024/01/12 05:03:37;;;;;;;18.38;4.28;;;;;;;;;;4965748;28;20058;-58
2024/01/12 05:06:03;;;;;;;22.33;4.68;;;;;;;;;;4984740;28;20095;-54
2024/01/12 05:08:29;;;;;;;21.33;4.75;;;;;;;;;;4982316;28;20038;-54
2024/01/12 05:10:55;;;;;;;15.73;4.50;;;;;;;;;;4985012;28;20529;-54
2024/01/12 05:13:21;;;;;;;13.60;3.85;;;;;;;;;;4984351;28;20129;-57
2024/01/12 05:15:47;;;;;;;18.45;4.30;;;;;;;;;;4985062;28;20489;-56
2024/01/12 05:18:13;;;;;;;16.17;4.03;;;;;;;;;;4984547;28;20069;-58
2024/01/12 05:20:39;;;;;;;12.57;3.90;;;4.40;99.90;;;;;;4974588;28;20073;-57
2024/01/12 05:23:05;;;;;;;14.60;3.35;;;;;;;;;;4971739;28;20108;-54
2024/01/12 05:25:31;;;;;;;13.60;3.85;;;;;;;;;;4970671;28;20466;-58
2024/01/12 05:27:57;;;;;;;15.55;4.00;;;4.40;99.90;;;;;;4972626;28;20417;-57
2024/01/12 05:30:23;;;;;;;19.05;3.60;;;;;;;;;;4971043;28;20048;-55
2024/01/12 05:32:49;;;;;;;16.02;3.55;;;;;;;;;;4972568;28;20331;-57
2024/01/12 05:35:15;;;;;;;14.38;3.83;;;;;;;;;;4975727;28;20189;-57
2024/01/12 05:37:41;;;;;;;20.88;3.58;;;;;;;;;;4976577;28;20068;-55
2024/01/12 05:40:07;;;;;;;18.95;4.13;;;;;;;;;;4978235;28;20035;-57
2024/01/12 05:42:33;;;;;;;13.23;3.80;;;4.40;99.90;;;;;;4975941;28;20038;-56
2024/01/12 05:44:58;;;;;;;19.40;4.20;;;4.40;1.00;;;;;;4963881;28;20095;-57
2024/01/12 05:47:24;;;;;;;11.57;3.42;;;;;;;;;;4960855;28;20528;-58
2024/01/12 05:49:50;;;;;;;15.50;3.53;;;;;;;;;;4974782;28;20125;-54
2024/01/12 05:52:16;;;;;;;39.63;6.07;;;;;;;;;;4972638;28;20047;-57
2024/01/12 05:54:42;;;;;;;11.70;3.17;;;4.40;99.90;;;;;;4968742;28;20050;-57
2024/01/12 05:57:08;;;;;;;21.05;5.65;;;;;;;;;;4968984;28;20478;-58
2024/01/12 05:59:35;;;;;;;19.00;5.53;;;;;;;;;;4953661;28;20073;-57
2024/01/12 06:02:00;;;;;;;16.08;4.43;;;4.40;99.90;;;;;;4975516;28;20038;-54
2024/01/12 06:04:26;;;;;;;13.68;4.88;;;;;;;;;;4983168;28;20503;-58
2024/01/12 06:06:52;;;;;;;13.63;3.42;;;4.40;99.90;;;;;;4989108;28;20432;-58
2024/01/12 06:09:19;;;;;;;12.57;3.10;;;;;;;;;;4978289;28;20045;-59
2024/01/12 06:11:45;;;;;;;10.57;2.67;;;;;;;;;;4985823;28;20057;-57
2024/01/12 06:14:11;;;;;;;14.77;4.32;;;4.40;99.90;;;;;;4980230;28;20041;-58
2024/01/12 06:16:37;;;;;;;13.65;3.13;;;;;;;;;;4976493;28;20038;-58
2024/01/12 06:19:03;;;;;;;10.82;3.10;;;;;;;;;;4987442;28;20046;-56
2024/01/12 06:21:29;;;;;;;10.43;3.03;;;;;;;;;;4984350;28;20472;-59
2024/01/12 06:23:55;;;;;;;12.77;2.80;;;;;;;;;;4987806;28;20057;-57
2024/01/12 06:26:21;;;;;;;14.32;4.15;;;;;;;;;;4990066;28;20646;-56
2024/01/12 06:28:47;;;;;;;13.13;3.38;;;;;;;;;;4986556;28;20078;-56
2024/01/12 06:31:14;;;;;;;12.63;3.83;;;;;;;;;;4986963;28;20536;-54
2024/01/12 06:33:41;;;;;;;15.38;3.50;;;;;;;;;;4985851;28;20031;-57
2024/01/12 06:36:07;;;;;;;12.45;2.90;;;;;;;;;;4989048;28;20553;-55
2024/01/12 06:38:33;;;;;;;13.50;3.13;;;;;;;;;;4988160;28;20062;-56
2024/01/12 06:40:58;;;;;;;13.93;3.45;;;4.60;99.90;;;;;;4989860;28;20053;-57
2024/01/12 06:43:24;;;;;;;18.55;3.88;;;;;;;;;;4989165;28;20063;-57
2024/01/12 06:45:50;;;;;;;19.65;3.65;;;;;;;;;;4988389;28;20054;-55
2024/01/12 06:48:16;;;;;;;14.35;4.32;;;;;;;;;;4990307;28;20062;-56
2024/01/12 06:50:42;;;;;;;13.98;3.60;;;;;;;;;;4985385;28;20076;-57
2024/01/12 06:53:09;;;;;;;13.52;3.08;;;;;;;;;;4989318;28;20042;-54
2024/01/12 06:55:38;;;;;;;14.82;2.80;;;;;;;;;;4988223;28;20034;-56
2024/01/12 06:58:04;;;;;;;20.77;3.45;;;;;;;;;;4987902;28;20046;-56
2024/01/12 07:00:30;;;;;;;17.00;3.42;;;;;;;;;;4988267;28;20045;-58
2024/01/12 07:02:56;;;;;;;8.68;2.92;;;;;;;;;;4989461;28;20121;-58
2024/01/12 07:05:22;;;;;;;17.90;3.70;;;;;;;;;;4988680;28;20498;-57
2024/01/12 07:07:48;;;;;;;10.25;3.00;;;;;;;;;;4969013;28;20077;-58
2024/01/12 07:10:14;;;;;;;12.77;3.65;;;;;;;;;;4987188;28;20038;-58
2024/01/12 07:12:40;;;;;;;14.57;3.10;;;;;;;;;;4981381;28;20074;-58
2024/01/12 07:15:06;;;;;;;12.65;3.58;;;;;;;;;;4969419;28;20470;-57
2024/01/12 07:17:32;;;;;;;14.10;2.97;;;;;;;;;;4988255;28;20042;-57
2024/01/12 07:19:58;;;;;;;14.90;3.00;;;4.70;99.90;;;;;;4989357;28;20406;-56
2024/01/12 07:22:24;;;;;;;11.65;2.42;;;;;;;;;;4990015;28;20038;-58
2024/01/12 07:24:50;;;;;;;12.18;2.80;;;;;;;;;;4986561;28;20045;-57
2024/01/12 07:27:16;;;;;;;14.07;2.97;;;;;;;;;;4989776;28;20077;-57
2024/01/12 07:29:42;;;;;;;11.75;2.58;;;;;;;;;;4988530;28;20054;-57
2024/01/12 07:32:08;;;;;;;10.95;2.72;;;;;;;;;;4989168;28;20535;-57
2024/01/12 07:34:34;;;;;;;10.88;3.05;;;;;;;;;;4990444;28;20042;-56
2024/01/12 07:37:01;;;;;;;13.48;3.47;;;;;;;;;;4990229;28;20071;-56
2024/01/12 07:39:27;;;;;;;23.52;3.33;;;;;;;;;;4989800;28;20181;-58
2024/01/12 07:41:53;;;;;;;21.02;5.28;;;;;;;;;;4990971;28;20466;-59
2024/01/12 07:44:19;;;;;;;15.68;3.20;;;;;;;;;;4990094;28;20513;-59
2024/01/12 07:46:45;;;;;;;17.55;3.22;;;;;;;;;;4990884;28;20049;-58
2024/01/12 07:49:12;;;;;;;10.50;3.10;;;;;;;;;;4987549;28;20049;-59
2024/01/12 07:51:38;;;;;;;15.88;4.53;;;;;;;;;;4989905;28;20121;-56
2024/01/12 07:54:04;;;;;;;11.55;2.53;;;;;;;;;;4987406;28;20030;-55
2024/01/12 07:56:30;;;;;;;15.10;3.65;;;;;;;;;;4970755;28;20057;-58
2024/01/12 07:58:57;;;;;;;18.88;5.85;;;;;;;;;;4987075;28;20038;-58
2024/01/12 08:01:24;;;;;;;14.15;3.38;;;;;;;;;;4985235;28;20041;-57
2024/01/12 08:03:50;;;;;;;13.43;3.53;;;;;;;;;;4985529;28;20046;-59
2024/01/12 08:06:16;;;;;;;14.90;4.00;;;;;;;;;;4983561;28;20050;-57
2024/01/12 08:08:42;;;;;;;12.98;3.17;;;;;;;;;;4984570;28;20034;-58
2024/01/12 08:11:08;;;;;;;12.32;3.10;;;;;;;;;;4984483;28;20045;-56
2024/01/12 08:13:35;;;;;;;16.92;4.43;;;;;;;;;;4982429;28;20034;-55
2024/01/12 08:16:01;;;;;;;17.55;3.55;;;;;;;;;;4990475;28;20084;-55
2024/01/12 08:18:26;;;;;;;17.65;4.45;;;4.60;99.90;;;;;;4988683;28;20186;-56
2024/01/12 08:20:52;;;;;;;13.35;3.45;;;;;;;;;;4991269;28;20067;-55
2024/01/12 08:23:18;;;;;;;10.68;2.78;;;;;;;;;;4988521;28;20050;-56
2024/01/12 08:25:44;;;;;;;12.23;3.17;;;;;;;;;;4988993;28;20038;-56
2024/01/12 08:28:10;;;;;;;18.77;3.92;;;;;;;;;;4989968;28;20038;-55
2024/01/12 08:30:36;;;;;;;12.07;2.88;;;;;;;;;;4990110;28;20066;-57
2024/01/12 08:33:02;;;;;;;10.18;2.97;;;4.80;99.90;;;;;;4988337;28;20046;-57
2024/01/12 08:35:28;;;;;;;12.45;3.42;;;4.70;99.90;;;;;;4986361;28;20170;-56
2024/01/12 08:37:54;;;;;;;15.10;2.92;;;;;;;;;;4992470;28;20073;-56
2024/01/12 08:40:20;;;;;;;13.10;3.90;;;;;;;;;;4991580;28;20065;-57
2024/01/12 08:42:46;;;;;;;15.68;5.32;;;;;;;;;;4989498;28;20042;-56
2024/01/12 08:45:12;;;;;;;14.77;5.00;;;;;;;;;;4986073;28;20077;-53
2024/01/12 08:47:38;;;;;;;12.30;2.90;;;;;;;;;;4990391;28;20094;-55
2024/01/12 08:50:05;;;;;;;16.30;3.47;;;;;;;;;;4971400;28;20049;-56
2024/01/12 08:52:31;;;;;;;12.27;2.63;;;;;;;;;;4991736;28;20085;-58
2024/01/12 08:54:57;;;;;;;10.77;2.85;;;;;;;;;;4987571;28;20089;-57
2024/01/12 08:57:23;;;;;;;12.23;3.30;;;;;;;;;;4986469;28;20100;-56
2024/01/12 08:59:49;;;;;;;17.60;3.20;;;;;;;;;;4987955;28;20132;-58
2024/01/12 09:02:15;;;;;;;8.48;2.35;;;;;;;;;;4989518;28;20069;-57
2024/01/12 09:04:41;;;;;;;17.02;3.45;;;;;;;;;;4988421;28;20038;-55
2024/01/12 09:07:07;;;;;;;11.38;3.30;;;;;;;;;;4990197;28;20504;-55
2024/01/12 09:09:33;;;;;;;14.35;3.13;;;;;;;;;;4990563;28;20042;-57
2024/01/12 09:11:59;;;;;;;12.38;4.40;;;;;;;;;;4989551;28;20042;-57
2024/01/12 09:14:27;;;;;;;17.67;3.70;;;;;;;;;;4985259;28;20121;-57
2024/01/12 09:16:53;;;;;;;15.98;4.18;;;;;;;;;;4987975;28;20043;-54
2024/01/12 09:19:19;;;;;;;13.05;2.72;;;;;;;;;;4988909;28;20186;-58
2024/01/12 09:21:45;;;;;;;20.85;3.08;;;;;;;;;;4990112;28;20077;-57
2024/01/12 09:24:11;;;;;;;16.45;5.28;;;5.10;99.90;;;;;;4988961;28;20038;-54
2024/01/12 09:26:37;;;;;;;14.65;4.97;;;;;;;;;;4989264;28;20109;-57
2024/01/12 09:29:04;;;;;;;20.50;4.72;;;;;;;;;;4987886;28;20489;-57
2024/01/12 09:31:30;;;;;;;15.65;4.35;;;;;;;;;;4988251;28;20046;-57
2024/01/12 09:33:57;;;;;;;14.23;3.90;;;;;;;;;;4986161;28;20069;-55
2024/01/12 09:36:24;;;;;;;15.77;3.15;;;;;;;;;;4989192;28;20081;-58
2024/01/12 09:38:50;;;;;;;16.20;3.50;;;;;;;;;;4984296;28;20049;-57
2024/01/12 09:41:24;;;;;;;13.73;3.40;;;5.40;99.90;;;;;;4988524;28;20038;-55
2024/01/12 09:43:51;;;;;;;16.65;3.97;;;;;;;;;;4984693;28;20070;-57
2024/01/12 09:46:18;;;;;;;14.25;3.65;;;;;;;;;;4987142;28;20038;-57
2024/01/12 09:48:44;;;;;;;11.90;3.58;;;5.20;99.90;;;;;;4988043;28;20057;-57
2024/01/12 09:51:12;;;;;;;16.95;4.05;;;;;;;;;;4985120;28;20042;-57
2024/01/12 09:53:38;;;;;;;16.30;3.90;;;;;;;;;;4988365;28;20097;-57
2024/01/12 09:56:04;;;;;;;15.85;3.22;;;;;;;;;;4986228;28;20474;-57
2024/01/12 09:58:30;;;;;;;16.92;4.00;;;;;;;;;;4989381;28;20046;-55
2024/01/12 10:00:57;;;;;;;13.48;4.40;;;;;;;;;;4990401;28;20030;-56
2024/01/12 10:03:25;;;;;;;15.00;3.67;;;;;;;;;;4977500;28;20042;-57
2024/01/12 10:05:51;;;;;;;16.30;3.95;;;;;;;;;;4990779;28;20043;-58
2024/01/12 10:08:17;;;;;;;14.95;4.00;;;;;;;;;;4986185;28;20034;-54
2024/01/12 10:10:43;;;;;;;18.30;3.85;;;;;;;;;;4988764;28;20129;-57
2024/01/12 10:13:09;;;;;;;14.10;2.80;;;;;;;;;;4987362;28;20113;-56
2024/01/12 10:15:41;;;;;;;14.77;3.88;;;;;;;;;;4987174;28;20065;-55
2024/01/12 10:18:07;;;;;;;14.40;3.10;;;5.30;99.90;;;;;;4988674;28;20070;-56
2024/01/12 10:20:36;;;;;;;10.70;3.17;;;;;;;;;;4987820;28;20065;-56
2024/01/12 10:23:03;;;;;;;13.55;3.20;;;5.30;99.90;;;;;;4990735;28;20517;-56
2024/01/12 10:25:29;;;;;;;14.40;3.85;;;;;;;;;;4993980;28;20042;-54
2024/01/12 10:27:58;;;;;;;11.65;2.25;;;;;;;;;;4986906;28;20097;-55
2024/01/12 10:30:25;;;;;;;13.18;3.53;;;;;;;;;;4991339;28;20050;-57
2024/01/12 10:32:52;;;;;;;11.25;3.30;;;5.50;99.90;;;;;;4987635;28;20090;-58
2024/01/12 10:35:21;;;;;;;13.23;3.30;;;5.40;99.90;;;;;;4985562;28;20041;-55
2024/01/12 10:37:47;;;;;;;12.82;3.08;;;;;;;;;;4986910;28;20064;-54
2024/01/12 10:40:17;;;;;;;13.35;2.72;;;;;;;;;;4986462;28;20663;-57
2024/01/12 10:42:50;;;;;;;8.30;2.58;;;6.00;99.90;;;;;;4969217;28;20069;-55
2024/01/12 10:45:22;;;;;;;6.38;2.20;;;5.60;99.90;;;;;;4989338;28;20038;-57
2024/01/12 10:47:56;;;;;;;12.40;3.30;;;;;;;;;;4970604;28;20046;-56
2024/01/12 10:50:24;;;;;;;14.68;2.67;;;;;;;;;;4983420;28;20061;-54
2024/01/12 10:52:57;;;;;;;19.63;3.50;;;;;;;;;;4987050;28;20038;-56
2024/01/12 10:55:23;;;;;;;10.43;2.83;;;;;;;;;;4986990;28;20049;-56
2024/01/12 10:57:50;;;;;;;14.98;3.15;;;;;;;;;;4989553;28;20086;-54
2024/01/12 11:00:16;;;;;;;12.13;3.50;;;;;;;;;;4989188;28;20034;-55
2024/01/12 11:02:43;;;;;;;12.50;2.92;;;;;;;;;;4986638;28;20067;-55
2024/01/12 11:05:10;;;;;;;12.02;2.42;;;;;;;;;;4990019;28;20046;-56
2024/01/12 11:07:38;;;;;;;12.13;2.60;;;5.10;99.90;;;;;;4987506;28;20077;-55
2024/01/12 11:10:04;;;;;;;14.98;2.90;;;;;;;;;;4984588;28;20497;-53
2024/01/12 11:12:35;;;;;;;14.70;4.18;;;;;;;;;;4988346;28;20074;-52
2024/01/12 11:15:01;;;;;;;12.65;3.45;;;;;;;;;;4985723;28;20098;-54
2024/01/12 11:17:31;;;;;;;10.75;2.80;;;;;;;;;;4987006;28;20042;-55
2024/01/12 11:20:10;;;;;;;17.23;4.32;;;;;;;;;;4992990;28;20078;-53
2024/01/12 11:22:38;;;;;;;13.95;3.22;;;;;;;;;;4986755;28;20045;-53
2024/01/12 11:25:05;;;;;;;16.35;4.75;;;;;;;;;;4992972;28;20089;-55
2024/01/12 11:27:32;;;;;;;15.73;2.80;;;;;;;;;;4988052;28;20038;-54
2024/01/12 11:29:58;;;;;;;11.85;3.20;;;;;;;;;;4986799;28;20046;-56
2024/01/12 11:32:24;;;;;;;11.52;2.92;;;;;;;;;;4985900;28;20038;-54
2024/01/12 11:34:50;;;;;;;17.88;3.47;;;5.70;99.90;;;;;;4991437;28;20042;-54
2024/01/12 11:37:16;;;;;;;9.30;2.50;;;;;;;;;;4985439;28;20390;-55
2024/01/12 11:39:44;;;;;;;13.93;2.97;;;;;;;;;;4983668;28;20030;-54
2024/01/12 11:42:10;;;;;;;10.98;3.05;;;;;;;;;;4985736;28;20117;-55
2024/01/12 11:44:36;;;;;;;13.90;2.70;;;;;;;;;;4984887;28;20050;-56
2024/01/12 11:47:09;;;;;;;10.90;2.67;;;;;;;;;;4985054;28;20038;-56
2024/01/12 11:49:35;;;;;;;12.77;2.70;;;5.90;99.90;;;;;;4988110;28;20669;-55
2024/01/12 11:52:02;;;;;;;14.02;2.70;;;;;;;;;;4986691;28;20121;-56
2024/01/12 11:54:28;;;;;;;22.73;3.97;;;;;;;;;;4988216;28;20117;-56
2024/01/12 11:56:55;;;;;;;13.80;3.42;;;;;;;;;;4985527;28;20151;-55
2024/01/12 11:59:21;;;;;;;12.57;2.33;;;;;;;;;;4985121;28;20046;-54
2024/01/12 12:01:47;;;;;;;11.43;4.72;;;;;;;;;;4991281;28;20650;-53
2024/01/12 12:04:19;;;;;;;10.82;2.65;;;;;;;;;;4994757;28;20049;-53
2024/01/12 12:06:48;;;;;;;12.75;3.70;;;;;;;;;;4989679;28;20046;-55
2024/01/12 12:09:14;;;;;;;18.42;3.17;;;;;;;;;;4988561;28;20099;-53
2024/01/12 12:11:40;;;;;;;13.50;3.17;;;;;;;;;;4990111;28;20046;-55
2024/01/12 12:14:06;;;;;;;12.02;3.15;;;;;;;;;;4993317;28;20505;-56
2024/01/12 12:16:34;;;;;;;16.17;2.67;;;;;;;;;;4991948;28;20042;-55
2024/01/12 12:18:59;;;;;;;12.48;2.60;;;5.90;99.90;;;;;;4993745;28;20057;-54
2024/01/12 12:21:25;;;;;;;14.10;2.40;;;;;;;;;;4993085;28;20042;-56
2024/01/12 12:23:51;;;;;;;15.07;2.90;;;;;;;;;;4990369;28;20046;-53
2024/01/12 12:26:17;;;;;;;10.65;2.83;;;;;;;;;;4993244;28;20378;-53
2024/01/12 12:28:47;;;;;;;15.50;3.05;;;;;;;;;;4989421;28;20042;-54
2024/01/12 12:31:13;;;;;;;10.63;3.20;;;5.80;99.90;;;;;;4989167;28;20046;-53
2024/01/12 12:33:43;;;;;;;13.98;3.45;;;;;;;;;;4994435;28;20109;-56
2024/01/12 12:36:10;;;;;;;10.25;2.10;;;;;;;;;;4994432;28;20049;-55
2024/01/12 12:38:37;;;;;;;15.63;3.75;;;;;;;;;;4995557;28;20072;-54
2024/01/12 12:41:03;;;;;;;11.98;3.58;;;;;;;;;;4992575;28;20041;-55
2024/01/12 12:43:29;;;;;;;14.20;3.55;;;;;;;;;;4994312;28;20042;-56
2024/01/12 12:45:55;;;;;;;9.30;3.17;;;;;;;;;;4993001;28;20037;-56
2024/01/12 12:48:27;;;;;;;12.88;3.03;;;;;;;;;;4989862;28;20049;-55
2024/01/12 12:50:53;;;;;;;13.95;3.63;;;;;;;;;;4988471;28;20130;-56
2024/01/12 12:53:20;;;;;;;16.00;3.63;;;;;;;;;;4989742;28;20054;-55
2024/01/12 12:55:46;;;;;;;14.48;3.53;;;;;;;;;;4989606;28;20042;-54
2024/01/12 12:58:13;;;;;;;15.07;4.55;;;;;;;;;;4986653;28;20130;-57
2024/01/12 13:00:38;;;;;;;12.70;2.80;;;;;;;;;;4993357;28;20092;-55
2024/01/12 13:03:05;;;;;;;14.95;2.95;;;;;;;;;;4988637;28;20544;-56
2024/01/12 13:05:36;;;;;;;16.65;3.95;;;;;;;;;;4988920;28;20080;-56
2024/01/12 13:08:03;;;;;;;17.92;3.60;;;;;;;;;;4990413;28;20053;-53
2024/01/12 13:10:29;;;;;;;14.52;4.15;;;;;;;;;;4991535;28;21224;-56
2024/01/12 13:12:55;;;;;;;18.08;3.90;;;;;;;;;;4988385;28;20101;-55
2024/01/12 13:15:21;;;;;;;15.40;3.40;;;;;;;;;;4989378;28;20049;-53
2024/01/12 13:17:47;;;;;;;17.30;3.20;;;;;;;;;;4972101;28;20117;-55
2024/01/12 13:20:13;;;;;;;13.63;3.15;;;;;;;;;;4991214;28;20113;-56
2024/01/12 13:22:39;;;;;;;13.32;2.65;;;;;;;;;;4986780;28;20469;-54
2024/01/12 13:25:06;;;;;;;11.02;1.92;;;;;;;;;;4988779;28;20137;-56
2024/01/12 13:27:32;;;;;;;8.05;1.70;;;6.20;99.90;;;;;;4989720;28;20413;-56
2024/01/12 13:29:58;;;;;;;6.22;1.27;;;;;;;;;;4993757;28;20054;-56
2024/01/12 13:32:24;;;;;;;5.15;1.30;;;;;;;;;;4969933;28;20034;-55
2024/01/12 13:34:51;;;;;;;4.00;1.10;;;;;;;;;;4988571;28;20097;-56
2024/01/12 13:37:17;;;;;;;5.32;1.10;;;;;;;;;;4988654;28;20053;-56
2024/01/12 13:39:43;;;;;;;5.20;1.10;;;;;;;;;;4989037;28;20465;-56
2024/01/12 13:42:09;;;;;;;5.63;1.13;;;;;;;;;;4990244;28;20038;-56
2024/01/12 13:44:35;;;;;;;5.07;1.20;;;6.60;99.90;;;;;;4988811;28;20046;-53
2024/01/12 13:47:02;;;;;;;5.05;1.58;;;;;;;;;;4987736;28;20377;-56
2024/01/12 13:49:28;;;;;;;6.40;1.30;;;;;;;;;;4987691;28;20113;-56
2024/01/12 13:51:55;;;;;;;3.35;1.00;;;;;;;;;;4991733;28;20052;-54
2024/01/12 13:54:21;;;;;;;6.20;1.73;;;;;;;;;;4989003;28;20062;-53
2024/01/12 13:56:47;;;;;;;6.80;1.77;;;;;;;;;;4986766;28;20050;-56
2024/01/12 13:59:14;;;;;;;9.07;1.70;;;;;;;;;;4986842;28;20101;-55
2024/01/12 14:01:40;;;;;;;4.97;1.33;;;;;;;;;;4985605;28;20469;-56
2024/01/12 14:04:07;;;;;;;5.85;1.65;;;;;;;;;;4988750;28;20042;-53
2024/01/12 14:06:35;;;;;;;3.95;1.10;;;;;;;;;;4987139;28;20398;-53
2024/01/12 14:09:04;;;;;;;8.90;2.10;;;6.70;99.90;;;;;;4988740;28;20055;-56